sensor_id;sensor_type;location;lat;lon;timestamp;pressure;altitude;pressure_sealevel;temperature;humidity
68986;BME280;56035;37.534;-122.308;2022-12-11T00:01:39;100298.69;;;12.11;100.00
68986;BME280;56035;37.534;-122.308;2022-12-11T00:04:05;100281.00;;;12.12;100.00
68986;BME280;56035;37.534;-122.308;2022-12-11T00:06:31;100287.09;;;12.14;100.00
68986;BME280;56035;37.534;-122.308;2022-12-11T00:08:58;100293.19;;;12.16;100.00
68986;BME280;56035;37.534;-122.308;2022-12-11T00:11:24;100292.34;;;12.15;100.00
68986;BME280;56035;37.534;-122.308;2022-12-11T00:13:50;100293.72;;;12.13;100.00
68986;BME280;56035;37.534;-122.308;2022-12-11T00:16:16;100288.16;;;12.08;100.00
68986;BME280;56035;37.534;-122.308;2022-12-11T00:18:43;100287.34;;;12.07;100.00
68986;BME280;56035;37.534;-122.308;2022-12-11T00:21:12;100279.88;;;12.08;100.00
68986;BME280;56035;37.534;-122.308;2022-12-11T00:23:39;100261.91;;;12.05;100.00
68986;BME280;56035;37.534;-122.308;2022-12-11T00:26:06;100274.31;;;12.03;100.00
68986;BME280;56035;37.534;-122.308;2022-12-11T00:28:32;100266.25;;;11.96;100.00
68986;BME280;56035;37.534;-122.308;2022-12-11T00:31:02;100250.47;;;11.91;100.00
68986;BME280;56035;37.534;-122.308;2022-12-11T00:33:28;100250.44;;;11.86;100.00
68986;BME280;56035;37.534;-122.308;2022-12-11T00:35:54;100235.75;;;11.81;100.00
68986;BME280;56035;37.534;-122.308;2022-12-11T00:38:21;100246.41;;;11.72;100.00
68986;BME280;56035;37.534;-122.308;2022-12-11T00:40:47;100256.84;;;11.65;100.00
68986;BME280;56035;37.534;-122.308;2022-12-11T00:43:14;100251.84;;;11.62;100.00
68986;BME280;56035;37.534;-122.308;2022-12-11T00:45:41;100264.22;;;11.59;100.00
68986;BME280;56035;37.534;-122.308;2022-12-11T00:48:27;100237.47;;;11.60;100.00
68986;BME280;56035;37.534;-122.308;2022-12-11T00:50:54;100241.91;;;11.61;100.00
68986;BME280;56035;37.534;-122.308;2022-12-11T00:53:20;100236.06;;;11.57;100.00
68986;BME280;56035;37.534;-122.308;2022-12-11T00:55:46;100246.78;;;11.54;100.00
68986;BME280;56035;37.534;-122.308;2022-12-11T00:58:13;100249.53;;;11.54;100.00
68986;BME280;56035;37.534;-122.308;2022-12-11T01:00:40;100242.09;;;11.54;100.00
68986;BME280;56035;37.534;-122.308;2022-12-11T01:03:07;100250.66;;;11.53;100.00
68986;BME280;56035;37.534;-122.308;2022-12-11T01:05:33;100252.88;;;11.56;100.00
68986;BME280;56035;37.534;-122.308;2022-12-11T01:08:00;100243.72;;;11.50;100.00
68986;BME280;56035;37.534;-122.308;2022-12-11T01:10:26;100256.75;;;11.55;100.00
68986;BME280;56035;37.534;-122.308;2022-12-11T01:12:54;100270.03;;;11.58;100.00
68986;BME280;56035;37.534;-122.308;2022-12-11T01:15:23;100277.19;;;11.59;100.00
68986;BME280;56035;37.534;-122.308;2022-12-11T01:17:50;100280.31;;;11.40;100.00
68986;BME280;56035;37.534;-122.308;2022-12-11T01:20:16;100288.97;;;11.27;100.00
68986;BME280;56035;37.534;-122.308;2022-12-11T01:22:43;100281.50;;;11.22;100.00
68986;BME280;56035;37.534;-122.308;2022-12-11T01:25:09;100292.00;;;11.04;100.00
68986;BME280;56035;37.534;-122.308;2022-12-11T01:27:36;100287.72;;;10.91;100.00
68986;BME280;56035;37.534;-122.308;2022-12-11T01:30:06;100288.22;;;10.88;100.00
68986;BME280;56035;37.534;-122.308;2022-12-11T01:32:33;100281.16;;;10.75;100.00
68986;BME280;56035;37.534;-122.308;2022-12-11T01:35:03;100274.38;;;10.61;100.00
68986;BME280;56035;37.534;-122.308;2022-12-11T01:37:49;100271.47;;;10.50;100.00
68986;BME280;56035;37.534;-122.308;2022-12-11T01:40:18;100271.06;;;10.42;100.00
68986;BME280;56035;37.534;-122.308;2022-12-11T01:42:45;100275.66;;;10.36;100.00
68986;BME280;56035;37.534;-122.308;2022-12-11T01:47:40;100267.91;;;10.33;100.00
68986;BME280;56035;37.534;-122.308;2022-12-11T01:50:07;100270.66;;;10.33;100.00
68986;BME280;56035;37.534;-122.308;2022-12-11T01:52:33;100257.06;;;10.26;100.00
68986;BME280;56035;37.534;-122.308;2022-12-11T01:55:00;100263.31;;;10.22;100.00
68986;BME280;56035;37.534;-122.308;2022-12-11T01:57:26;100259.91;;;10.15;100.00
68986;BME280;56035;37.534;-122.308;2022-12-11T01:59:52;100247.38;;;10.07;100.00
68986;BME280;56035;37.534;-122.308;2022-12-11T02:02:29;100248.63;;;9.99;100.00
68986;BME280;56035;37.534;-122.308;2022-12-11T02:04:56;100257.31;;;9.91;100.00
68986;BME280;56035;37.534;-122.308;2022-12-11T02:07:22;100252.81;;;9.85;100.00
68986;BME280;56035;37.534;-122.308;2022-12-11T02:09:49;100252.16;;;9.78;100.00
68986;BME280;56035;37.534;-122.308;2022-12-11T02:12:38;100251.56;;;9.76;100.00
68986;BME280;56035;37.534;-122.308;2022-12-11T02:15:27;100251.22;;;9.72;100.00
68986;BME280;56035;37.534;-122.308;2022-12-11T02:18:17;100258.47;;;9.78;100.00
68986;BME280;56035;37.534;-122.308;2022-12-11T02:20:57;100253.53;;;9.80;100.00
68986;BME280;56035;37.534;-122.308;2022-12-11T02:27:01;100250.56;;;9.82;100.00
68986;BME280;56035;37.534;-122.308;2022-12-11T02:29:34;100250.06;;;9.85;100.00
68986;BME280;56035;37.534;-122.308;2022-12-11T02:32:12;100258.56;;;9.83;100.00
68986;BME280;56035;37.534;-122.308;2022-12-11T02:34:53;100261.31;;;9.83;100.00
68986;BME280;56035;37.534;-122.308;2022-12-11T02:37:23;100266.25;;;9.81;100.00
68986;BME280;56035;37.534;-122.308;2022-12-11T02:39:53;100262.56;;;9.76;100.00
68986;BME280;56035;37.534;-122.308;2022-12-11T02:42:20;100257.38;;;9.79;100.00
68986;BME280;56035;37.534;-122.308;2022-12-11T02:44:48;100259.91;;;9.81;100.00
68986;BME280;56035;37.534;-122.308;2022-12-11T02:47:17;100253.81;;;9.79;100.00
68986;BME280;56035;37.534;-122.308;2022-12-11T02:49:47;100249.97;;;9.80;100.00
68986;BME280;56035;37.534;-122.308;2022-12-11T02:52:16;100244.47;;;9.80;100.00
68986;BME280;56035;37.534;-122.308;2022-12-11T02:54:45;100249.13;;;9.79;100.00
68986;BME280;56035;37.534;-122.308;2022-12-11T02:57:37;100246.47;;;9.84;100.00
68986;BME280;56035;37.534;-122.308;2022-12-11T03:00:05;100255.72;;;9.78;100.00
68986;BME280;56035;37.534;-122.308;2022-12-11T03:02:31;100253.22;;;9.77;100.00
68986;BME280;56035;37.534;-122.308;2022-12-11T03:04:58;100254.19;;;9.71;100.00
68986;BME280;56035;37.534;-122.308;2022-12-11T03:07:27;100252.53;;;9.70;100.00
68986;BME280;56035;37.534;-122.308;2022-12-11T03:09:56;100250.97;;;9.74;100.00
68986;BME280;56035;37.534;-122.308;2022-12-11T03:12:27;100257.06;;;9.76;100.00
68986;BME280;56035;37.534;-122.308;2022-12-11T03:14:54;100249.03;;;9.74;100.00
68986;BME280;56035;37.534;-122.308;2022-12-11T03:17:26;100254.03;;;9.77;100.00
68986;BME280;56035;37.534;-122.308;2022-12-11T03:22:54;100254.63;;;9.79;100.00
68986;BME280;56035;37.534;-122.308;2022-12-11T03:25:43;100249.41;;;9.78;100.00
68986;BME280;56035;37.534;-122.308;2022-12-11T03:28:17;100253.81;;;9.79;100.00
68986;BME280;56035;37.534;-122.308;2022-12-11T03:30:45;100246.38;;;9.79;100.00
68986;BME280;56035;37.534;-122.308;2022-12-11T03:33:37;100238.97;;;9.80;100.00
68986;BME280;56035;37.534;-122.308;2022-12-11T03:36:16;100240.47;;;9.88;100.00
68986;BME280;56035;37.534;-122.308;2022-12-11T03:38:53;100244.06;;;9.88;100.00
68986;BME280;56035;37.534;-122.308;2022-12-11T03:41:23;100259.97;;;9.86;100.00
68986;BME280;56035;37.534;-122.308;2022-12-11T03:43:52;100256.72;;;9.89;100.00
68986;BME280;56035;37.534;-122.308;2022-12-11T03:46:22;100254.63;;;9.96;100.00
68986;BME280;56035;37.534;-122.308;2022-12-11T03:48:52;100268.81;;;10.05;100.00
68986;BME280;56035;37.534;-122.308;2022-12-11T03:51:21;100270.91;;;10.15;100.00
68986;BME280;56035;37.534;-122.308;2022-12-11T03:53:49;100293.59;;;10.22;100.00
68986;BME280;56035;37.534;-122.308;2022-12-11T03:59:38;100300.06;;;9.82;100.00
68986;BME280;56035;37.534;-122.308;2022-12-11T04:02:04;100290.81;;;9.71;100.00
68986;BME280;56035;37.534;-122.308;2022-12-11T04:04:40;100280.53;;;9.67;100.00
68986;BME280;56035;37.534;-122.308;2022-12-11T04:07:07;100274.38;;;9.59;100.00
68986;BME280;56035;37.534;-122.308;2022-12-11T04:09:33;100269.19;;;9.46;100.00
68986;BME280;56035;37.534;-122.308;2022-12-11T04:11:59;100263.00;;;9.39;100.00
68986;BME280;56035;37.534;-122.308;2022-12-11T04:14:25;100243.16;;;9.37;100.00
68986;BME280;56035;37.534;-122.308;2022-12-11T04:17:10;100242.50;;;9.30;100.00
68986;BME280;56035;37.534;-122.308;2022-12-11T04:19:36;100277.63;;;9.28;100.00
68986;BME280;56035;37.534;-122.308;2022-12-11T04:22:21;100301.78;;;9.26;100.00
68986;BME280;56035;37.534;-122.308;2022-12-11T04:25:06;100301.78;;;9.26;100.00
68986;BME280;56035;37.534;-122.308;2022-12-11T04:27:33;100308.13;;;9.26;100.00
68986;BME280;56035;37.534;-122.308;2022-12-11T04:30:21;100321.25;;;9.24;100.00
68986;BME280;56035;37.534;-122.308;2022-12-11T04:32:48;100311.59;;;9.22;100.00
68986;BME280;56035;37.534;-122.308;2022-12-11T04:35:15;100308.00;;;9.21;100.00
68986;BME280;56035;37.534;-122.308;2022-12-11T04:37:41;100312.66;;;9.21;100.00
68986;BME280;56035;37.534;-122.308;2022-12-11T04:40:10;100300.00;;;9.20;100.00
68986;BME280;56035;37.534;-122.308;2022-12-11T04:42:37;100298.09;;;9.20;100.00
68986;BME280;56035;37.534;-122.308;2022-12-11T04:45:04;100296.09;;;9.16;100.00
68986;BME280;56035;37.534;-122.308;2022-12-11T04:47:31;100295.22;;;9.15;100.00
68986;BME280;56035;37.534;-122.308;2022-12-11T04:49:57;100288.06;;;9.14;100.00
68986;BME280;56035;37.534;-122.308;2022-12-11T04:52:23;100281.75;;;9.13;100.00
68986;BME280;56035;37.534;-122.308;2022-12-11T04:54:49;100281.75;;;9.13;100.00
68986;BME280;56035;37.534;-122.308;2022-12-11T04:57:16;100290.47;;;9.10;100.00
68986;BME280;56035;37.534;-122.308;2022-12-11T04:59:42;100312.47;;;9.10;100.00
68986;BME280;56035;37.534;-122.308;2022-12-11T05:02:08;100313.56;;;9.09;100.00
68986;BME280;56035;37.534;-122.308;2022-12-11T05:04:54;100303.38;;;9.10;100.00
68986;BME280;56035;37.534;-122.308;2022-12-11T05:07:21;100308.53;;;9.06;100.00
68986;BME280;56035;37.534;-122.308;2022-12-11T05:09:47;100299.09;;;9.02;100.00
68986;BME280;56035;37.534;-122.308;2022-12-11T05:12:13;100300.19;;;9.01;100.00
68986;BME280;56035;37.534;-122.308;2022-12-11T05:14:39;100304.00;;;9.00;100.00
68986;BME280;56035;37.534;-122.308;2022-12-11T05:17:05;100311.16;;;9.01;100.00
68986;BME280;56035;37.534;-122.308;2022-12-11T05:19:31;100298.53;;;9.00;100.00
68986;BME280;56035;37.534;-122.308;2022-12-11T05:21:58;100265.44;;;8.95;100.00
68986;BME280;56035;37.534;-122.308;2022-12-11T05:24:24;100273.94;;;8.94;100.00
68986;BME280;56035;37.534;-122.308;2022-12-11T05:26:50;100289.81;;;8.91;100.00
68986;BME280;56035;37.534;-122.308;2022-12-11T05:29:16;100305.22;;;8.93;100.00
68986;BME280;56035;37.534;-122.308;2022-12-11T05:31:42;100316.19;;;8.93;100.00
68986;BME280;56035;37.534;-122.308;2022-12-11T05:34:09;100296.97;;;8.93;100.00
68986;BME280;56035;37.534;-122.308;2022-12-11T05:36:35;100294.47;;;8.91;100.00
68986;BME280;56035;37.534;-122.308;2022-12-11T05:39:02;100287.66;;;8.94;100.00
68986;BME280;56035;37.534;-122.308;2022-12-11T05:41:30;100288.38;;;8.89;100.00
68986;BME280;56035;37.534;-122.308;2022-12-11T05:43:57;100294.97;;;8.88;100.00
68986;BME280;56035;37.534;-122.308;2022-12-11T05:46:25;100297.97;;;8.86;100.00
68986;BME280;56035;37.534;-122.308;2022-12-11T05:48:54;100297.34;;;8.84;100.00
68986;BME280;56035;37.534;-122.308;2022-12-11T05:51:21;100303.94;;;8.83;100.00
68986;BME280;56035;37.534;-122.308;2022-12-11T05:53:49;100311.81;;;8.80;100.00
68986;BME280;56035;37.534;-122.308;2022-12-11T05:56:18;100306.56;;;8.78;100.00
68986;BME280;56035;37.534;-122.308;2022-12-11T05:58:46;100319.22;;;8.79;100.00
68986;BME280;56035;37.534;-122.308;2022-12-11T06:01:18;100312.41;;;8.82;100.00
68986;BME280;56035;37.534;-122.308;2022-12-11T06:03:45;100307.75;;;8.82;100.00
68986;BME280;56035;37.534;-122.308;2022-12-11T06:06:12;100313.13;;;8.77;100.00
68986;BME280;56035;37.534;-122.308;2022-12-11T06:08:38;100303.72;;;8.73;100.00
68986;BME280;56035;37.534;-122.308;2022-12-11T06:11:05;100302.16;;;8.65;100.00
68986;BME280;56035;37.534;-122.308;2022-12-11T06:13:31;100298.44;;;8.60;100.00
68986;BME280;56035;37.534;-122.308;2022-12-11T06:16:02;100303.00;;;8.54;100.00
68986;BME280;56035;37.534;-122.308;2022-12-11T06:18:29;100315.06;;;8.53;100.00
68986;BME280;56035;37.534;-122.308;2022-12-11T06:20:55;100308.63;;;8.48;100.00
68986;BME280;56035;37.534;-122.308;2022-12-11T06:23:22;100304.19;;;8.47;100.00
68986;BME280;56035;37.534;-122.308;2022-12-11T06:25:48;100317.56;;;8.43;100.00
68986;BME280;56035;37.534;-122.308;2022-12-11T06:28:14;100306.00;;;8.41;100.00
68986;BME280;56035;37.534;-122.308;2022-12-11T06:30:41;100290.22;;;8.36;100.00
68986;BME280;56035;37.534;-122.308;2022-12-11T06:33:07;100285.19;;;8.33;100.00
68986;BME280;56035;37.534;-122.308;2022-12-11T06:35:33;100278.41;;;8.36;100.00
68986;BME280;56035;37.534;-122.308;2022-12-11T06:37:59;100281.53;;;8.39;100.00
68986;BME280;56035;37.534;-122.308;2022-12-11T06:40:26;100276.75;;;8.35;100.00
68986;BME280;56035;37.534;-122.308;2022-12-11T06:42:53;100275.91;;;8.34;100.00
68986;BME280;56035;37.534;-122.308;2022-12-11T06:45:19;100271.47;;;8.33;100.00
68986;BME280;56035;37.534;-122.308;2022-12-11T06:47:45;100257.53;;;8.35;100.00
68986;BME280;56035;37.534;-122.308;2022-12-11T06:50:12;100270.81;;;8.38;100.00
68986;BME280;56035;37.534;-122.308;2022-12-11T06:52:38;100263.75;;;8.42;100.00
68986;BME280;56035;37.534;-122.308;2022-12-11T06:55:04;100276.53;;;8.48;100.00
68986;BME280;56035;37.534;-122.308;2022-12-11T06:57:31;100285.94;;;8.52;100.00
68986;BME280;56035;37.534;-122.308;2022-12-11T06:59:57;100289.88;;;8.56;100.00
68986;BME280;56035;37.534;-122.308;2022-12-11T07:02:23;100305.84;;;8.59;100.00
68986;BME280;56035;37.534;-122.308;2022-12-11T07:04:49;100310.03;;;8.62;100.00
68986;BME280;56035;37.534;-122.308;2022-12-11T07:07:16;100292.00;;;8.66;100.00
68986;BME280;56035;37.534;-122.308;2022-12-11T07:10:03;100291.31;;;8.71;100.00
68986;BME280;56035;37.534;-122.308;2022-12-11T07:12:29;100286.38;;;8.73;100.00
68986;BME280;56035;37.534;-122.308;2022-12-11T07:14:56;100290.81;;;8.74;100.00
68986;BME280;56035;37.534;-122.308;2022-12-11T07:17:22;100291.66;;;8.74;100.00
68986;BME280;56035;37.534;-122.308;2022-12-11T07:19:48;100293.56;;;8.74;100.00
68986;BME280;56035;37.534;-122.308;2022-12-11T07:22:14;100302.28;;;8.71;100.00
68986;BME280;56035;37.534;-122.308;2022-12-11T07:24:40;100318.50;;;8.72;100.00
68986;BME280;56035;37.534;-122.308;2022-12-11T07:27:07;100338.56;;;8.73;100.00
68986;BME280;56035;37.534;-122.308;2022-12-11T07:29:33;100363.53;;;8.71;100.00
68986;BME280;56035;37.534;-122.308;2022-12-11T07:31:59;100390.50;;;8.62;100.00
68986;BME280;56035;37.534;-122.308;2022-12-11T07:34:25;100364.72;;;8.40;100.00
68986;BME280;56035;37.534;-122.308;2022-12-11T07:36:51;100376.13;;;8.25;100.00
68986;BME280;56035;37.534;-122.308;2022-12-11T07:39:18;100372.97;;;7.98;100.00
68986;BME280;56035;37.534;-122.308;2022-12-11T07:41:44;100376.50;;;7.87;100.00
68986;BME280;56035;37.534;-122.308;2022-12-11T07:44:11;100379.22;;;7.75;100.00
68986;BME280;56035;37.534;-122.308;2022-12-11T07:46:38;100376.78;;;7.67;100.00
68986;BME280;56035;37.534;-122.308;2022-12-11T07:49:05;100371.47;;;7.72;100.00
68986;BME280;56035;37.534;-122.308;2022-12-11T07:51:35;100372.38;;;7.66;100.00
68986;BME280;56035;37.534;-122.308;2022-12-11T07:54:07;100364.63;;;7.63;100.00
68986;BME280;56035;37.534;-122.308;2022-12-11T07:56:34;100357.53;;;7.55;100.00
68986;BME280;56035;37.534;-122.308;2022-12-11T07:59:02;100364.34;;;7.53;100.00
68986;BME280;56035;37.534;-122.308;2022-12-11T08:01:31;100374.47;;;7.52;100.00
68986;BME280;56035;37.534;-122.308;2022-12-11T08:03:58;100360.16;;;7.50;100.00
68986;BME280;56035;37.534;-122.308;2022-12-11T08:06:27;100320.59;;;7.46;100.00
68986;BME280;56035;37.534;-122.308;2022-12-11T08:08:54;100319.44;;;7.35;100.00
68986;BME280;56035;37.534;-122.308;2022-12-11T08:11:21;100317.41;;;7.31;100.00
68986;BME280;56035;37.534;-122.308;2022-12-11T08:13:48;100304.25;;;7.21;100.00
68986;BME280;56035;37.534;-122.308;2022-12-11T08:16:16;100293.25;;;7.09;100.00
68986;BME280;56035;37.534;-122.308;2022-12-11T08:18:43;100294.19;;;7.03;100.00
68986;BME280;56035;37.534;-122.308;2022-12-11T08:21:17;100296.38;;;6.94;100.00
68986;BME280;56035;37.534;-122.308;2022-12-11T08:23:44;100298.75;;;6.91;100.00
68986;BME280;56035;37.534;-122.308;2022-12-11T08:26:13;100310.75;;;6.90;100.00
68986;BME280;56035;37.534;-122.308;2022-12-11T08:28:40;100303.53;;;6.95;100.00
68986;BME280;56035;37.534;-122.308;2022-12-11T08:31:08;100295.69;;;6.99;100.00
68986;BME280;56035;37.534;-122.308;2022-12-11T08:33:35;100293.78;;;6.99;100.00
68986;BME280;56035;37.534;-122.308;2022-12-11T08:36:04;100296.91;;;7.03;100.00
68986;BME280;56035;37.534;-122.308;2022-12-11T08:38:32;100289.28;;;7.05;100.00
68986;BME280;56035;37.534;-122.308;2022-12-11T08:40:58;100297.50;;;7.05;100.00
68986;BME280;56035;37.534;-122.308;2022-12-11T08:43:24;100295.97;;;7.09;100.00
68986;BME280;56035;37.534;-122.308;2022-12-11T08:45:51;100289.44;;;7.10;100.00
68986;BME280;56035;37.534;-122.308;2022-12-11T08:48:17;100281.06;;;7.05;100.00
68986;BME280;56035;37.534;-122.308;2022-12-11T08:50:43;100277.13;;;7.01;100.00
68986;BME280;56035;37.534;-122.308;2022-12-11T08:53:32;100277.59;;;6.98;100.00
68986;BME280;56035;37.534;-122.308;2022-12-11T08:56:03;100284.16;;;6.97;100.00
68986;BME280;56035;37.534;-122.308;2022-12-11T08:58:29;100295.09;;;6.97;100.00
68986;BME280;56035;37.534;-122.308;2022-12-11T09:00:55;100298.66;;;6.97;100.00
68986;BME280;56035;37.534;-122.308;2022-12-11T09:03:22;100303.06;;;6.98;100.00
68986;BME280;56035;37.534;-122.308;2022-12-11T09:05:49;100300.94;;;7.00;100.00
68986;BME280;56035;37.534;-122.308;2022-12-11T09:08:15;100305.59;;;7.00;100.00
68986;BME280;56035;37.534;-122.308;2022-12-11T09:10:41;100314.19;;;7.03;100.00
68986;BME280;56035;37.534;-122.308;2022-12-11T09:13:08;100311.56;;;7.09;100.00
68986;BME280;56035;37.534;-122.308;2022-12-11T09:15:34;100300.41;;;7.10;100.00
68986;BME280;56035;37.534;-122.308;2022-12-11T09:18:00;100293.59;;;7.13;100.00
68986;BME280;56035;37.534;-122.308;2022-12-11T09:20:27;100298.63;;;7.16;100.00
68986;BME280;56035;37.534;-122.308;2022-12-11T09:22:53;100297.34;;;7.18;100.00
68986;BME280;56035;37.534;-122.308;2022-12-11T09:25:19;100304.03;;;7.22;100.00
68986;BME280;56035;37.534;-122.308;2022-12-11T09:27:45;100288.81;;;7.26;100.00
68986;BME280;56035;37.534;-122.308;2022-12-11T09:30:12;100265.56;;;7.29;100.00
68986;BME280;56035;37.534;-122.308;2022-12-11T09:32:38;100253.78;;;7.28;100.00
68986;BME280;56035;37.534;-122.308;2022-12-11T09:35:05;100250.00;;;7.30;100.00
68986;BME280;56035;37.534;-122.308;2022-12-11T09:37:32;100247.00;;;7.31;100.00
68986;BME280;56035;37.534;-122.308;2022-12-11T09:39:59;100252.72;;;7.30;100.00
68986;BME280;56035;37.534;-122.308;2022-12-11T09:42:53;100255.22;;;7.31;100.00
68986;BME280;56035;37.534;-122.308;2022-12-11T09:45:20;100244.50;;;7.30;100.00
68986;BME280;56035;37.534;-122.308;2022-12-11T09:47:52;100256.06;;;7.32;100.00
68986;BME280;56035;37.534;-122.308;2022-12-11T09:50:26;100266.44;;;7.41;100.00
68986;BME280;56035;37.534;-122.308;2022-12-11T09:53:06;100289.00;;;7.43;100.00
68986;BME280;56035;37.534;-122.308;2022-12-11T10:06:55;100325.63;;;7.31;100.00
68986;BME280;56035;37.534;-122.308;2022-12-11T10:12:14;100319.78;;;7.09;100.00
68986;BME280;56035;37.534;-122.308;2022-12-11T10:14:50;100310.09;;;6.94;100.00
68986;BME280;56035;37.534;-122.308;2022-12-11T10:17:27;100310.38;;;6.86;100.00
68986;BME280;56035;37.534;-122.308;2022-12-11T10:19:57;100311.34;;;6.73;100.00
68986;BME280;56035;37.534;-122.308;2022-12-11T10:22:29;100310.28;;;6.56;100.00
68986;BME280;56035;37.534;-122.308;2022-12-11T10:25:02;100325.72;;;6.50;100.00
68986;BME280;56035;37.534;-122.308;2022-12-11T10:27:36;100332.72;;;6.46;100.00
68986;BME280;56035;37.534;-122.308;2022-12-11T10:30:21;100339.00;;;6.47;100.00
68986;BME280;56035;37.534;-122.308;2022-12-11T10:38:27;100345.88;;;6.38;100.00
68986;BME280;56035;37.534;-122.308;2022-12-11T10:40:57;100348.63;;;6.31;100.00
68986;BME280;56035;37.534;-122.308;2022-12-11T10:43:36;100362.78;;;6.28;100.00
68986;BME280;56035;37.534;-122.308;2022-12-11T10:46:05;100354.56;;;6.28;100.00
68986;BME280;56035;37.534;-122.308;2022-12-11T10:48:32;100356.06;;;6.24;100.00
68986;BME280;56035;37.534;-122.308;2022-12-11T10:51:01;100361.81;;;6.16;100.00
68986;BME280;56035;37.534;-122.308;2022-12-11T10:53:29;100357.00;;;6.11;100.00
68986;BME280;56035;37.534;-122.308;2022-12-11T10:55:55;100353.69;;;6.09;100.00
68986;BME280;56035;37.534;-122.308;2022-12-11T10:58:28;100361.50;;;6.05;100.00
68986;BME280;56035;37.534;-122.308;2022-12-11T11:01:08;100360.22;;;6.01;100.00
68986;BME280;56035;37.534;-122.308;2022-12-11T11:03:41;100362.13;;;6.01;100.00
68986;BME280;56035;37.534;-122.308;2022-12-11T11:06:18;100360.88;;;6.03;100.00
68986;BME280;56035;37.534;-122.308;2022-12-11T11:08:51;100367.16;;;6.04;100.00
68986;BME280;56035;37.534;-122.308;2022-12-11T11:11:27;100378.50;;;6.07;100.00
68986;BME280;56035;37.534;-122.308;2022-12-11T11:14:26;100373.41;;;6.11;100.00
68986;BME280;56035;37.534;-122.308;2022-12-11T11:16:55;100376.78;;;6.13;100.00
68986;BME280;56035;37.534;-122.308;2022-12-11T11:19:31;100374.66;;;6.15;100.00
68986;BME280;56035;37.534;-122.308;2022-12-11T11:22:02;100363.72;;;6.15;100.00
68986;BME280;56035;37.534;-122.308;2022-12-11T11:24:43;100354.22;;;6.18;100.00
68986;BME280;56035;37.534;-122.308;2022-12-11T11:27:14;100373.16;;;6.19;100.00
68986;BME280;56035;37.534;-122.308;2022-12-11T11:29:45;100374.66;;;6.15;100.00
68986;BME280;56035;37.534;-122.308;2022-12-11T11:32:25;100366.22;;;6.17;100.00
68986;BME280;56035;37.534;-122.308;2022-12-11T11:35:09;100377.56;;;6.20;100.00
68986;BME280;56035;37.534;-122.308;2022-12-11T11:37:44;100373.53;;;6.23;100.00
68986;BME280;56035;37.534;-122.308;2022-12-11T11:40:36;100376.03;;;6.24;100.00
68986;BME280;56035;37.534;-122.308;2022-12-11T11:51:39;100372.03;;;6.27;100.00
68986;BME280;56035;37.534;-122.308;2022-12-11T11:54:33;100375.84;;;6.26;100.00
68986;BME280;56035;37.534;-122.308;2022-12-11T11:57:11;100386.97;;;6.24;100.00
68986;BME280;56035;37.534;-122.308;2022-12-11T11:59:52;100375.44;;;6.22;100.00
68986;BME280;56035;37.534;-122.308;2022-12-11T12:02:19;100376.34;;;6.16;100.00
68986;BME280;56035;37.534;-122.308;2022-12-11T12:04:46;100365.78;;;6.20;100.00
68986;BME280;56035;37.534;-122.308;2022-12-11T12:12:46;100369.00;;;6.10;100.00
68986;BME280;56035;37.534;-122.308;2022-12-11T12:15:54;100368.19;;;6.09;100.00
68986;BME280;56035;37.534;-122.308;2022-12-11T12:23:52;100384.41;;;6.04;100.00
68986;BME280;56035;37.534;-122.308;2022-12-11T12:26:28;100391.78;;;6.04;100.00
68986;BME280;56035;37.534;-122.308;2022-12-11T12:34:45;100404.41;;;6.05;100.00
68986;BME280;56035;37.534;-122.308;2022-12-11T12:40:34;100414.09;;;6.01;100.00
68986;BME280;56035;37.534;-122.308;2022-12-11T12:43:12;100419.16;;;5.97;100.00
68986;BME280;56035;37.534;-122.308;2022-12-11T12:45:47;100423.59;;;5.92;100.00
68986;BME280;56035;37.534;-122.308;2022-12-11T12:48:17;100429.03;;;5.92;100.00
68986;BME280;56035;37.534;-122.308;2022-12-11T12:50:47;100419.41;;;5.96;100.00
68986;BME280;56035;37.534;-122.308;2022-12-11T12:53:19;100435.56;;;5.97;100.00
68986;BME280;56035;37.534;-122.308;2022-12-11T12:55:48;100432.25;;;5.95;100.00
68986;BME280;56035;37.534;-122.308;2022-12-11T13:00:52;100433.66;;;5.98;100.00
68986;BME280;56035;37.534;-122.308;2022-12-11T13:03:20;100437.03;;;6.00;100.00
68986;BME280;56035;37.534;-122.308;2022-12-11T13:06:05;100445.44;;;5.98;100.00
68986;BME280;56035;37.534;-122.308;2022-12-11T13:08:45;100439.56;;;5.95;100.00
68986;BME280;56035;37.534;-122.308;2022-12-11T13:11:19;100430.53;;;5.94;100.00
68986;BME280;56035;37.534;-122.308;2022-12-11T13:13:59;100440.88;;;5.85;100.00
68986;BME280;56035;37.534;-122.308;2022-12-11T13:16:37;100442.34;;;5.81;100.00
68986;BME280;56035;37.534;-122.308;2022-12-11T13:21:57;100476.41;;;5.92;100.00
68986;BME280;56035;37.534;-122.308;2022-12-11T13:24:30;100495.53;;;5.99;100.00
68986;BME280;56035;37.534;-122.308;2022-12-11T13:27:08;100498.63;;;6.09;100.00
68986;BME280;56035;37.534;-122.308;2022-12-11T13:29:41;100502.81;;;6.12;100.00
68986;BME280;56035;37.534;-122.308;2022-12-11T13:32:22;100497.56;;;6.10;100.00
68986;BME280;56035;37.534;-122.308;2022-12-11T13:35:03;100504.09;;;6.09;100.00
68986;BME280;56035;37.534;-122.308;2022-12-11T13:37:35;100513.13;;;6.09;100.00
68986;BME280;56035;37.534;-122.308;2022-12-11T13:40:27;100505.75;;;6.10;100.00